sensor_id;sensor_type;location;lat;lon;timestamp;P1;durP1;ratioP1;P2;durP2;ratioP2
70148;SDS011;57514;52.164;5.282;2022-10-16T00:02:11;7.78;;;2.45;;
70148;SDS011;57514;52.164;5.282;2022-10-16T00:04:39;6.88;;;2.95;;
70148;SDS011;57514;52.164;5.282;2022-10-16T00:07:06;9.45;;;3.13;;
70148;SDS011;57514;52.164;5.282;2022-10-16T00:09:33;9.50;;;2.67;;
70148;SDS011;57514;52.164;5.282;2022-10-16T00:12:00;8.27;;;2.40;;
70148;SDS011;57514;52.164;5.282;2022-10-16T00:14:29;7.97;;;2.50;;
70148;SDS011;57514;52.164;5.282;2022-10-16T00:16:56;6.05;;;2.38;;
70148;SDS011;57514;52.164;5.282;2022-10-16T00:19:24;5.47;;;2.15;;
70148;SDS011;57514;52.164;5.282;2022-10-16T00:21:50;8.55;;;3.03;;
70148;SDS011;57514;52.164;5.282;2022-10-16T00:24:17;8.48;;;2.70;;
70148;SDS011;57514;52.164;5.282;2022-10-16T00:26:44;4.00;;;2.53;;
70148;SDS011;57514;52.164;5.282;2022-10-16T00:29:12;8.15;;;2.80;;
70148;SDS011;57514;52.164;5.282;2022-10-16T00:31:38;6.85;;;2.60;;
70148;SDS011;57514;52.164;5.282;2022-10-16T00:34:05;8.23;;;2.88;;
70148;SDS011;57514;52.164;5.282;2022-10-16T00:36:33;9.57;;;3.00;;
70148;SDS011;57514;52.164;5.282;2022-10-16T00:39:00;4.13;;;2.40;;
70148;SDS011;57514;52.164;5.282;2022-10-16T00:41:28;6.45;;;2.63;;
70148;SDS011;57514;52.164;5.282;2022-10-16T00:43:59;7.28;;;2.78;;
70148;SDS011;57514;52.164;5.282;2022-10-16T00:46:40;7.80;;;2.88;;
70148;SDS011;57514;52.164;5.282;2022-10-16T00:49:11;5.50;;;3.00;;
70148;SDS011;57514;52.164;5.282;2022-10-16T00:51:40;4.50;;;2.60;;
70148;SDS011;57514;52.164;5.282;2022-10-16T00:54:12;6.28;;;3.03;;
70148;SDS011;57514;52.164;5.282;2022-10-16T00:56:40;6.20;;;2.97;;
70148;SDS011;57514;52.164;5.282;2022-10-16T00:59:11;7.05;;;3.15;;
70148;SDS011;57514;52.164;5.282;2022-10-16T01:01:40;6.25;;;2.55;;
70148;SDS011;57514;52.164;5.282;2022-10-16T01:04:08;8.68;;;3.05;;
70148;SDS011;57514;52.164;5.282;2022-10-16T01:06:43;7.20;;;2.72;;
70148;SDS011;57514;52.164;5.282;2022-10-16T01:14:38;6.70;;;3.35;;
70148;SDS011;57514;52.164;5.282;2022-10-16T01:17:12;9.13;;;2.80;;
70148;SDS011;57514;52.164;5.282;2022-10-16T01:22:09;7.80;;;3.30;;
70148;SDS011;57514;52.164;5.282;2022-10-16T01:24:40;5.10;;;2.67;;
70148;SDS011;57514;52.164;5.282;2022-10-16T01:29:38;9.80;;;3.25;;
70148;SDS011;57514;52.164;5.282;2022-10-16T01:32:15;6.22;;;2.85;;
70148;SDS011;57514;52.164;5.282;2022-10-16T01:34:47;7.20;;;3.30;;
70148;SDS011;57514;52.164;5.282;2022-10-16T01:37:16;4.75;;;2.35;;
70148;SDS011;57514;52.164;5.282;2022-10-16T01:39:58;8.10;;;2.83;;
70148;SDS011;57514;52.164;5.282;2022-10-16T01:42:29;8.13;;;3.42;;
70148;SDS011;57514;52.164;5.282;2022-10-16T01:44:57;5.47;;;2.50;;
70148;SDS011;57514;52.164;5.282;2022-10-16T01:47:25;5.97;;;3.10;;
70148;SDS011;57514;52.164;5.282;2022-10-16T01:49:56;5.93;;;3.10;;
70148;SDS011;57514;52.164;5.282;2022-10-16T01:52:25;7.93;;;3.13;;
70148;SDS011;57514;52.164;5.282;2022-10-16T01:54:54;8.02;;;3.15;;
70148;SDS011;57514;52.164;5.282;2022-10-16T01:57:22;5.47;;;3.28;;
70148;SDS011;57514;52.164;5.282;2022-10-16T01:59:51;8.70;;;3.35;;
70148;SDS011;57514;52.164;5.282;2022-10-16T02:02:19;7.22;;;2.88;;
70148;SDS011;57514;52.164;5.282;2022-10-16T02:04:48;8.30;;;3.25;;
70148;SDS011;57514;52.164;5.282;2022-10-16T02:07:16;13.25;;;2.92;;
70148;SDS011;57514;52.164;5.282;2022-10-16T02:09:43;6.07;;;2.60;;
70148;SDS011;57514;52.164;5.282;2022-10-16T02:12:14;9.57;;;3.03;;
70148;SDS011;57514;52.164;5.282;2022-10-16T02:14:42;7.15;;;3.03;;
70148;SDS011;57514;52.164;5.282;2022-10-16T02:17:10;8.02;;;3.53;;
70148;SDS011;57514;52.164;5.282;2022-10-16T02:19:38;4.53;;;2.50;;
70148;SDS011;57514;52.164;5.282;2022-10-16T02:22:05;6.82;;;2.72;;
70148;SDS011;57514;52.164;5.282;2022-10-16T02:24:38;5.20;;;2.58;;
70148;SDS011;57514;52.164;5.282;2022-10-16T02:27:07;8.27;;;3.40;;
70148;SDS011;57514;52.164;5.282;2022-10-16T02:29:38;8.48;;;3.33;;
70148;SDS011;57514;52.164;5.282;2022-10-16T02:32:10;8.38;;;3.42;;
70148;SDS011;57514;52.164;5.282;2022-10-16T02:34:40;6.30;;;2.85;;
70148;SDS011;57514;52.164;5.282;2022-10-16T02:37:07;5.18;;;2.55;;
70148;SDS011;57514;52.164;5.282;2022-10-16T02:39:36;7.22;;;3.08;;
70148;SDS011;57514;52.164;5.282;2022-10-16T02:42:03;8.50;;;3.40;;
70148;SDS011;57514;52.164;5.282;2022-10-16T02:44:30;7.00;;;3.40;;
70148;SDS011;57514;52.164;5.282;2022-10-16T02:46:57;8.02;;;3.85;;
70148;SDS011;57514;52.164;5.282;2022-10-16T02:49:25;7.07;;;3.88;;
70148;SDS011;57514;52.164;5.282;2022-10-16T02:51:51;8.60;;;3.67;;
70148;SDS011;57514;52.164;5.282;2022-10-16T02:54:18;8.27;;;3.17;;
70148;SDS011;57514;52.164;5.282;2022-10-16T02:56:45;5.22;;;2.70;;
70148;SDS011;57514;52.164;5.282;2022-10-16T02:59:12;10.63;;;3.30;;
70148;SDS011;57514;52.164;5.282;2022-10-16T03:01:40;6.85;;;3.05;;
70148;SDS011;57514;52.164;5.282;2022-10-16T03:04:07;10.05;;;3.03;;
70148;SDS011;57514;52.164;5.282;2022-10-16T03:06:35;7.57;;;3.03;;
70148;SDS011;57514;52.164;5.282;2022-10-16T03:09:02;6.95;;;3.53;;
70148;SDS011;57514;52.164;5.282;2022-10-16T03:11:29;6.40;;;2.95;;
70148;SDS011;57514;52.164;5.282;2022-10-16T03:13:56;7.15;;;2.97;;
70148;SDS011;57514;52.164;5.282;2022-10-16T03:16:23;7.25;;;2.75;;
70148;SDS011;57514;52.164;5.282;2022-10-16T03:18:51;5.85;;;2.75;;
70148;SDS011;57514;52.164;5.282;2022-10-16T03:21:18;9.85;;;3.20;;
70148;SDS011;57514;52.164;5.282;2022-10-16T03:23:45;7.60;;;2.83;;
70148;SDS011;57514;52.164;5.282;2022-10-16T03:26:12;5.88;;;2.53;;
70148;SDS011;57514;52.164;5.282;2022-10-16T03:28:40;4.93;;;2.30;;
70148;SDS011;57514;52.164;5.282;2022-10-16T03:31:07;7.90;;;3.40;;
70148;SDS011;57514;52.164;5.282;2022-10-16T03:33:34;6.55;;;2.67;;
70148;SDS011;57514;52.164;5.282;2022-10-16T03:36:02;5.88;;;2.80;;
70148;SDS011;57514;52.164;5.282;2022-10-16T03:38:29;4.65;;;2.35;;
70148;SDS011;57514;52.164;5.282;2022-10-16T03:40:56;7.10;;;2.10;;
70148;SDS011;57514;52.164;5.282;2022-10-16T03:43:23;8.20;;;2.58;;
70148;SDS011;57514;52.164;5.282;2022-10-16T03:45:50;6.30;;;2.65;;
70148;SDS011;57514;52.164;5.282;2022-10-16T03:48:18;6.25;;;2.05;;
70148;SDS011;57514;52.164;5.282;2022-10-16T03:50:45;6.75;;;2.88;;
70148;SDS011;57514;52.164;5.282;2022-10-16T03:53:14;6.13;;;2.95;;
70148;SDS011;57514;52.164;5.282;2022-10-16T03:55:42;7.25;;;3.38;;
70148;SDS011;57514;52.164;5.282;2022-10-16T03:58:09;5.88;;;2.58;;
70148;SDS011;57514;52.164;5.282;2022-10-16T04:00:39;5.65;;;2.65;;
70148;SDS011;57514;52.164;5.282;2022-10-16T04:03:07;5.57;;;2.88;;
70148;SDS011;57514;52.164;5.282;2022-10-16T04:05:34;5.35;;;2.17;;
70148;SDS011;57514;52.164;5.282;2022-10-16T04:08:01;6.40;;;2.65;;
70148;SDS011;57514;52.164;5.282;2022-10-16T04:10:28;5.90;;;2.88;;
70148;SDS011;57514;52.164;5.282;2022-10-16T04:12:55;5.20;;;2.33;;
70148;SDS011;57514;52.164;5.282;2022-10-16T04:15:23;4.72;;;2.08;;
70148;SDS011;57514;52.164;5.282;2022-10-16T04:17:50;5.57;;;2.47;;
70148;SDS011;57514;52.164;5.282;2022-10-16T04:20:17;6.13;;;3.03;;
70148;SDS011;57514;52.164;5.282;2022-10-16T04:22:44;3.15;;;1.55;;
70148;SDS011;57514;52.164;5.282;2022-10-16T04:25:11;6.00;;;2.55;;
70148;SDS011;57514;52.164;5.282;2022-10-16T04:27:38;5.53;;;2.60;;
70148;SDS011;57514;52.164;5.282;2022-10-16T04:30:11;5.22;;;2.63;;
70148;SDS011;57514;52.164;5.282;2022-10-16T04:32:38;3.28;;;1.98;;
70148;SDS011;57514;52.164;5.282;2022-10-16T04:35:07;4.13;;;1.75;;
70148;SDS011;57514;52.164;5.282;2022-10-16T04:37:34;5.65;;;2.80;;
70148;SDS011;57514;52.164;5.282;2022-10-16T04:40:00;5.30;;;2.58;;
70148;SDS011;57514;52.164;5.282;2022-10-16T04:42:28;5.43;;;2.53;;
70148;SDS011;57514;52.164;5.282;2022-10-16T04:44:55;4.07;;;2.10;;
70148;SDS011;57514;52.164;5.282;2022-10-16T04:47:22;4.13;;;2.03;;
70148;SDS011;57514;52.164;5.282;2022-10-16T04:49:50;5.65;;;2.55;;
70148;SDS011;57514;52.164;5.282;2022-10-16T04:52:17;7.63;;;2.88;;
70148;SDS011;57514;52.164;5.282;2022-10-16T04:54:45;5.32;;;1.65;;
70148;SDS011;57514;52.164;5.282;2022-10-16T04:57:12;5.05;;;2.15;;
70148;SDS011;57514;52.164;5.282;2022-10-16T04:59:39;5.68;;;2.50;;
70148;SDS011;57514;52.164;5.282;2022-10-16T05:04:36;6.70;;;2.42;;
70148;SDS011;57514;52.164;5.282;2022-10-16T05:07:06;5.95;;;2.50;;
70148;SDS011;57514;52.164;5.282;2022-10-16T05:09:33;3.22;;;1.88;;
70148;SDS011;57514;52.164;5.282;2022-10-16T05:12:03;9.32;;;3.25;;
70148;SDS011;57514;52.164;5.282;2022-10-16T05:14:31;3.28;;;2.47;;
70148;SDS011;57514;52.164;5.282;2022-10-16T05:16:59;6.78;;;2.67;;
70148;SDS011;57514;52.164;5.282;2022-10-16T05:19:26;10.18;;;3.03;;
70148;SDS011;57514;52.164;5.282;2022-10-16T05:21:54;5.35;;;2.58;;
70148;SDS011;57514;52.164;5.282;2022-10-16T05:24:21;6.95;;;2.20;;
70148;SDS011;57514;52.164;5.282;2022-10-16T05:26:48;4.47;;;2.05;;
70148;SDS011;57514;52.164;5.282;2022-10-16T05:29:15;7.70;;;2.60;;
70148;SDS011;57514;52.164;5.282;2022-10-16T05:31:42;5.60;;;2.67;;
70148;SDS011;57514;52.164;5.282;2022-10-16T05:34:09;4.63;;;2.45;;
70148;SDS011;57514;52.164;5.282;2022-10-16T05:36:36;5.53;;;2.88;;
70148;SDS011;57514;52.164;5.282;2022-10-16T05:41:33;5.60;;;2.50;;
70148;SDS011;57514;52.164;5.282;2022-10-16T05:44:03;12.90;;;3.50;;
70148;SDS011;57514;52.164;5.282;2022-10-16T05:46:30;4.47;;;2.70;;
70148;SDS011;57514;52.164;5.282;2022-10-16T05:48:57;4.50;;;2.03;;
70148;SDS011;57514;52.164;5.282;2022-10-16T05:51:25;5.97;;;2.33;;
70148;SDS011;57514;52.164;5.282;2022-10-16T05:53:52;4.50;;;2.35;;
70148;SDS011;57514;52.164;5.282;2022-10-16T05:56:19;5.72;;;2.58;;
70148;SDS011;57514;52.164;5.282;2022-10-16T05:58:46;6.97;;;2.90;;
70148;SDS011;57514;52.164;5.282;2022-10-16T06:01:14;6.28;;;2.80;;
70148;SDS011;57514;52.164;5.282;2022-10-16T06:03:41;3.90;;;2.13;;
70148;SDS011;57514;52.164;5.282;2022-10-16T06:06:12;5.85;;;3.20;;
70148;SDS011;57514;52.164;5.282;2022-10-16T06:08:40;5.25;;;2.45;;
70148;SDS011;57514;52.164;5.282;2022-10-16T06:11:09;7.15;;;3.00;;
70148;SDS011;57514;52.164;5.282;2022-10-16T06:13:36;3.65;;;1.63;;
70148;SDS011;57514;52.164;5.282;2022-10-16T06:16:06;5.97;;;2.78;;
70148;SDS011;57514;52.164;5.282;2022-10-16T06:18:33;10.63;;;2.70;;
70148;SDS011;57514;52.164;5.282;2022-10-16T06:20:59;6.32;;;3.15;;
70148;SDS011;57514;52.164;5.282;2022-10-16T06:23:33;10.65;;;3.05;;
70148;SDS011;57514;52.164;5.282;2022-10-16T06:26:04;3.28;;;1.98;;
70148;SDS011;57514;52.164;5.282;2022-10-16T06:28:31;7.63;;;2.80;;
70148;SDS011;57514;52.164;5.282;2022-10-16T06:30:59;6.05;;;3.15;;
70148;SDS011;57514;52.164;5.282;2022-10-16T06:33:32;6.90;;;3.67;;
70148;SDS011;57514;52.164;5.282;2022-10-16T06:36:09;4.57;;;2.28;;
70148;SDS011;57514;52.164;5.282;2022-10-16T06:38:37;4.22;;;2.47;;
70148;SDS011;57514;52.164;5.282;2022-10-16T06:41:04;9.80;;;3.90;;
70148;SDS011;57514;52.164;5.282;2022-10-16T06:43:32;6.35;;;2.78;;
70148;SDS011;57514;52.164;5.282;2022-10-16T06:46:03;7.70;;;3.20;;
70148;SDS011;57514;52.164;5.282;2022-10-16T06:48:31;6.50;;;3.17;;
70148;SDS011;57514;52.164;5.282;2022-10-16T06:53:34;5.13;;;2.47;;
70148;SDS011;57514;52.164;5.282;2022-10-16T06:58:36;6.35;;;3.33;;
70148;SDS011;57514;52.164;5.282;2022-10-16T07:01:03;6.38;;;2.38;;
70148;SDS011;57514;52.164;5.282;2022-10-16T07:03:32;7.70;;;3.15;;
70148;SDS011;57514;52.164;5.282;2022-10-16T07:06:02;3.38;;;1.95;;
70148;SDS011;57514;52.164;5.282;2022-10-16T07:08:31;4.47;;;2.42;;
70148;SDS011;57514;52.164;5.282;2022-10-16T07:10:59;6.05;;;2.70;;
70148;SDS011;57514;52.164;5.282;2022-10-16T07:13:26;6.97;;;2.95;;
70148;SDS011;57514;52.164;5.282;2022-10-16T07:15:53;4.45;;;2.17;;
70148;SDS011;57514;52.164;5.282;2022-10-16T07:18:21;6.63;;;2.70;;
70148;SDS011;57514;52.164;5.282;2022-10-16T07:20:52;3.15;;;1.95;;
70148;SDS011;57514;52.164;5.282;2022-10-16T07:23:19;8.82;;;2.45;;
70148;SDS011;57514;52.164;5.282;2022-10-16T07:25:53;4.95;;;2.10;;
70148;SDS011;57514;52.164;5.282;2022-10-16T07:28:21;5.97;;;2.63;;
70148;SDS011;57514;52.164;5.282;2022-10-16T07:30:48;6.90;;;2.58;;
70148;SDS011;57514;52.164;5.282;2022-10-16T07:33:18;7.85;;;2.30;;
70148;SDS011;57514;52.164;5.282;2022-10-16T07:35:52;4.35;;;2.10;;
70148;SDS011;57514;52.164;5.282;2022-10-16T07:38:19;4.68;;;2.08;;
70148;SDS011;57514;52.164;5.282;2022-10-16T07:40:47;6.00;;;2.30;;
70148;SDS011;57514;52.164;5.282;2022-10-16T07:43:14;3.17;;;1.45;;
70148;SDS011;57514;52.164;5.282;2022-10-16T07:45:47;6.78;;;2.10;;
70148;SDS011;57514;52.164;5.282;2022-10-16T07:48:15;4.32;;;2.22;;
70148;SDS011;57514;52.164;5.282;2022-10-16T07:50:43;5.20;;;1.80;;
70148;SDS011;57514;52.164;5.282;2022-10-16T07:53:11;4.40;;;2.00;;
70148;SDS011;57514;52.164;5.282;2022-10-16T07:55:38;6.22;;;2.30;;
70148;SDS011;57514;52.164;5.282;2022-10-16T07:58:05;4.05;;;2.20;;
70148;SDS011;57514;52.164;5.282;2022-10-16T08:00:32;8.75;;;1.85;;
70148;SDS011;57514;52.164;5.282;2022-10-16T08:03:00;5.68;;;1.75;;
70148;SDS011;57514;52.164;5.282;2022-10-16T08:05:27;7.30;;;2.55;;
70148;SDS011;57514;52.164;5.282;2022-10-16T08:07:55;6.90;;;2.70;;
70148;SDS011;57514;52.164;5.282;2022-10-16T08:10:23;5.07;;;1.83;;
70148;SDS011;57514;52.164;5.282;2022-10-16T08:12:51;5.13;;;1.80;;
70148;SDS011;57514;52.164;5.282;2022-10-16T08:15:19;4.05;;;1.75;;
70148;SDS011;57514;52.164;5.282;2022-10-16T08:17:56;6.68;;;2.60;;
70148;SDS011;57514;52.164;5.282;2022-10-16T08:20:25;5.70;;;1.65;;
70148;SDS011;57514;52.164;5.282;2022-10-16T08:22:52;8.23;;;2.30;;
70148;SDS011;57514;52.164;5.282;2022-10-16T08:25:20;7.22;;;1.88;;
70148;SDS011;57514;52.164;5.282;2022-10-16T08:27:49;3.50;;;1.40;;
70148;SDS011;57514;52.164;5.282;2022-10-16T08:30:17;5.13;;;1.83;;
70148;SDS011;57514;52.164;5.282;2022-10-16T08:32:45;4.60;;;1.80;;
70148;SDS011;57514;52.164;5.282;2022-10-16T08:35:12;6.93;;;1.70;;
70148;SDS011;57514;52.164;5.282;2022-10-16T08:37:39;3.28;;;1.55;;
70148;SDS011;57514;52.164;5.282;2022-10-16T08:40:07;3.45;;;1.30;;
70148;SDS011;57514;52.164;5.282;2022-10-16T08:43:15;2.40;;;1.05;;
70148;SDS011;57514;52.164;5.282;2022-10-16T08:48:30;5.47;;;1.60;;
70148;SDS011;57514;52.164;5.282;2022-10-16T08:51:07;4.93;;;1.45;;
70148;SDS011;57514;52.164;5.282;2022-10-16T08:53:41;6.80;;;1.67;;
70148;SDS011;57514;52.164;5.282;2022-10-16T08:56:12;7.40;;;1.90;;
70148;SDS011;57514;52.164;5.282;2022-10-16T08:58:39;9.48;;;2.17;;
70148;SDS011;57514;52.164;5.282;2022-10-16T09:01:14;3.97;;;1.30;;
70148;SDS011;57514;52.164;5.282;2022-10-16T09:06:12;4.72;;;1.65;;
70148;SDS011;57514;52.164;5.282;2022-10-16T09:11:24;5.90;;;1.55;;
70148;SDS011;57514;52.164;5.282;2022-10-16T09:16:36;8.07;;;1.67;;
70148;SDS011;57514;52.164;5.282;2022-10-16T09:22:04;6.28;;;2.08;;
70148;SDS011;57514;52.164;5.282;2022-10-16T09:24:38;6.60;;;1.15;;
70148;SDS011;57514;52.164;5.282;2022-10-16T09:27:08;6.53;;;1.70;;
70148;SDS011;57514;52.164;5.282;2022-10-16T09:29:37;6.70;;;1.20;;
70148;SDS011;57514;52.164;5.282;2022-10-16T09:32:08;6.80;;;1.75;;
70148;SDS011;57514;52.164;5.282;2022-10-16T09:34:40;5.30;;;1.42;;
70148;SDS011;57514;52.164;5.282;2022-10-16T09:37:12;11.65;;;2.40;;
70148;SDS011;57514;52.164;5.282;2022-10-16T09:39:50;6.95;;;2.00;;
70148;SDS011;57514;52.164;5.282;2022-10-16T09:42:18;7.93;;;2.00;;
70148;SDS011;57514;52.164;5.282;2022-10-16T09:44:49;7.78;;;1.92;;
70148;SDS011;57514;52.164;5.282;2022-10-16T09:47:19;5.60;;;2.00;;
70148;SDS011;57514;52.164;5.282;2022-10-16T09:52:18;10.75;;;2.10;;
70148;SDS011;57514;52.164;5.282;2022-10-16T09:54:49;5.35;;;1.90;;
70148;SDS011;57514;52.164;5.282;2022-10-16T09:57:20;6.13;;;1.80;;
70148;SDS011;57514;52.164;5.282;2022-10-16T09:59:54;10.15;;;1.67;;
70148;SDS011;57514;52.164;5.282;2022-10-16T10:02:35;11.32;;;2.00;;
70148;SDS011;57514;52.164;5.282;2022-10-16T10:05:17;9.60;;;2.35;;
70148;SDS011;57514;52.164;5.282;2022-10-16T10:07:53;10.40;;;2.63;;
70148;SDS011;57514;52.164;5.282;2022-10-16T10:10:26;6.60;;;1.50;;
70148;SDS011;57514;52.164;5.282;2022-10-16T10:12:55;8.23;;;1.77;;
70148;SDS011;57514;52.164;5.282;2022-10-16T10:15:22;9.95;;;2.30;;
70148;SDS011;57514;52.164;5.282;2022-10-16T10:17:54;3.78;;;1.30;;
70148;SDS011;57514;52.164;5.282;2022-10-16T10:20:32;11.32;;;2.67;;
70148;SDS011;57514;52.164;5.282;2022-10-16T10:23:23;9.55;;;2.03;;
70148;SDS011;57514;52.164;5.282;2022-10-16T10:26:01;10.13;;;1.63;;
70148;SDS011;57514;52.164;5.282;2022-10-16T10:28:52;10.27;;;2.38;;
70148;SDS011;57514;52.164;5.282;2022-10-16T10:34:01;9.48;;;2.20;;
70148;SDS011;57514;52.164;5.282;2022-10-16T10:36:41;17.23;;;3.15;;
70148;SDS011;57514;52.164;5.282;2022-10-16T10:39:17;14.68;;;2.05;;
70148;SDS011;57514;52.164;5.282;2022-10-16T10:42:15;9.57;;;1.90;;
70148;SDS011;57514;52.164;5.282;2022-10-16T10:47:40;11.38;;;2.17;;
70148;SDS011;57514;52.164;5.282;2022-10-16T10:53:10;11.68;;;2.40;;
70148;SDS011;57514;52.164;5.282;2022-10-16T11:06:57;8.93;;;1.60;;
70148;SDS011;57514;52.164;5.282;2022-10-16T11:09:33;6.30;;;1.92;;
70148;SDS011;57514;52.164;5.282;2022-10-16T11:12:12;7.20;;;2.20;;
70148;SDS011;57514;52.164;5.282;2022-10-16T11:17:31;8.13;;;2.30;;
70148;SDS011;57514;52.164;5.282;2022-10-16T11:20:05;5.22;;;1.75;;
70148;SDS011;57514;52.164;5.282;2022-10-16T11:22:45;5.50;;;1.33;;
70148;SDS011;57514;52.164;5.282;2022-10-16T11:25:34;8.80;;;2.70;;
70148;SDS011;57514;52.164;5.282;2022-10-16T11:30:48;8.98;;;2.08;;
70148;SDS011;57514;52.164;5.282;2022-10-16T11:36:03;8.38;;;2.10;;
70148;SDS011;57514;52.164;5.282;2022-10-16T11:41:15;9.02;;;2.13;;
70148;SDS011;57514;52.164;5.282;2022-10-16T11:44:09;7.32;;;2.72;;
70148;SDS011;57514;52.164;5.282;2022-10-16T11:54:07;7.50;;;2.03;;
70148;SDS011;57514;52.164;5.282;2022-10-16T11:56:18;8.20;;;1.70;;
70148;SDS011;57514;52.164;5.282;2022-10-16T11:58:50;8.75;;;1.88;;
70148;SDS011;57514;52.164;5.282;2022-10-16T12:09:09;7.43;;;1.85;;
70148;SDS011;57514;52.164;5.282;2022-10-16T12:12:00;7.82;;;1.75;;
70148;SDS011;57514;52.164;5.282;2022-10-16T12:14:36;9.10;;;2.22;;
70148;SDS011;57514;52.164;5.282;2022-10-16T12:17:25;10.73;;;2.25;;
70148;SDS011;57514;52.164;5.282;2022-10-16T12:20:12;11.88;;;2.85;;
70148;SDS011;57514;52.164;5.282;2022-10-16T12:22:57;7.55;;;2.30;;
70148;SDS011;57514;52.164;5.282;2022-10-16T12:25:28;7.05;;;1.98;;
70148;SDS011;57514;52.164;5.282;2022-10-16T12:27:56;8.55;;;2.60;;
70148;SDS011;57514;52.164;5.282;2022-10-16T12:30:28;6.22;;;1.38;;
70148;SDS011;57514;52.164;5.282;2022-10-16T12:33:02;12.57;;;2.20;;
70148;SDS011;57514;52.164;5.282;2022-10-16T12:35:32;14.30;;;2.65;;
70148;SDS011;57514;52.164;5.282;2022-10-16T12:38:05;6.28;;;1.30;;
70148;SDS011;57514;52.164;5.282;2022-10-16T12:40:44;6.60;;;2.05;;
70148;SDS011;57514;52.164;5.282;2022-10-16T12:45:59;9.43;;;1.92;;
70148;SDS011;57514;52.164;5.282;2022-10-16T12:48:31;11.60;;;2.50;;
70148;SDS011;57514;52.164;5.282;2022-10-16T13:04:58;3.67;;;1.70;;
70148;SDS011;57514;52.164;5.282;2022-10-16T13:07:45;7.07;;;1.90;;
70148;SDS011;57514;52.164;5.282;2022-10-16T13:22:06;12.77;;;2.33;;
70148;SDS011;57514;52.164;5.282;2022-10-16T13:27:56;8.38;;;1.40;;
70148;SDS011;57514;52.164;5.282;2022-10-16T13:30:27;7.32;;;2.03;;
70148;SDS011;57514;52.164;5.282;2022-10-16T13:35:29;7.53;;;1.55;;
70148;SDS011;57514;52.164;5.282;2022-10-16T13:38:11;9.55;;;2.05;;
70148;SDS011;57514;52.164;5.282;2022-10-16T13:43:25;9.60;;;1.92;;
70148;SDS011;57514;52.164;5.282;2022-10-16T13:46:05;6.40;;;1.88;;
70148;SDS011;57514;52.164;5.282;2022-10-16T13:48:37;8.38;;;2.00;;
70148;SDS011;57514;52.164;5.282;2022-10-16T13:51:05;7.55;;;1.83;;
70148;SDS011;57514;52.164;5.282;2022-10-16T13:53:38;8.02;;;2.08;;
70148;SDS011;57514;52.164;5.282;2022-10-16T13:56:09;8.98;;;1.80;;
70148;SDS011;57514;52.164;5.282;2022-10-16T13:58:39;5.63;;;1.45;;
70148;SDS011;57514;52.164;5.282;2022-10-16T14:01:25;9.18;;;2.38;;
70148;SDS011;57514;52.164;5.282;2022-10-16T14:04:05;8.27;;;2.20;;
70148;SDS011;57514;52.164;5.282;2022-10-16T14:06:40;7.85;;;1.77;;
70148;SDS011;57514;52.164;5.282;2022-10-16T14:12:15;9.35;;;1.77;;
70148;SDS011;57514;52.164;5.282;2022-10-16T14:14:43;6.72;;;2.22;;
70148;SDS011;57514;52.164;5.282;2022-10-16T14:17:15;11.43;;;1.88;;
70148;SDS011;57514;52.164;5.282;2022-10-16T14:19:47;14.27;;;2.47;;
70148;SDS011;57514;52.164;5.282;2022-10-16T14:22:36;5.82;;;1.80;;
70148;SDS011;57514;52.164;5.282;2022-10-16T14:27:45;12.30;;;1.88;;
70148;SDS011;57514;52.164;5.282;2022-10-16T14:30:35;9.30;;;2.10;;
70148;SDS011;57514;52.164;5.282;2022-10-16T14:33:03;6.75;;;1.80;;
70148;SDS011;57514;52.164;5.282;2022-10-16T14:35:33;7.07;;;1.70;;
70148;SDS011;57514;52.164;5.282;2022-10-16T14:38:04;8.73;;;2.42;;
70148;SDS011;57514;52.164;5.282;2022-10-16T14:40:45;10.68;;;2.33;;
70148;SDS011;57514;52.164;5.282;2022-10-16T14:43:15;9.48;;;2.55;;
70148;SDS011;57514;52.164;5.282;2022-10-16T14:45:51;10.88;;;2.92;;
70148;SDS011;57514;52.164;5.282;2022-10-16T14:48:20;12.95;;;2.42;;
70148;SDS011;57514;52.164;5.282;2022-10-16T14:50:47;5.82;;;1.90;;
70148;SDS011;57514;52.164;5.282;2022-10-16T14:53:14;9.13;;;2.40;;
70148;SDS011;57514;52.164;5.282;2022-10-16T14:55:41;8.68;;;2.15;;
70148;SDS011;57514;52.164;5.282;2022-10-16T14:58:11;10.35;;;2.20;;
70148;SDS011;57514;52.164;5.282;2022-10-16T15:00:40;9.23;;;1.60;;
70148;SDS011;57514;52.164;5.282;2022-10-16T15:03:07;13.32;;;2.45;;
70148;SDS011;57514;52.164;5.282;2022-10-16T15:05:34;9.70;;;1.83;;
70148;SDS011;57514;52.164;5.282;2022-10-16T15:08:01;9.32;;;2.30;;
70148;SDS011;57514;52.164;5.282;2022-10-16T15:10:28;12.68;;;2.72;;
70148;SDS011;57514;52.164;5.282;2022-10-16T15:12:55;9.95;;;2.65;;
70148;SDS011;57514;52.164;5.282;2022-10-16T15:17:49;14.85;;;2.30;;
70148;SDS011;57514;52.164;5.282;2022-10-16T15:20:19;8.73;;;1.90;;
70148;SDS011;57514;52.164;5.282;2022-10-16T15:22:46;9.00;;;2.50;;
70148;SDS011;57514;52.164;5.282;2022-10-16T15:25:26;9.15;;;2.38;;
70148;SDS011;57514;52.164;5.282;2022-10-16T15:27:54;8.93;;;2.75;;
70148;SDS011;57514;52.164;5.282;2022-10-16T15:30:21;8.70;;;1.90;;
70148;SDS011;57514;52.164;5.282;2022-10-16T15:32:48;11.95;;;2.33;;
70148;SDS011;57514;52.164;5.282;2022-10-16T15:35:15;10.15;;;2.58;;
70148;SDS011;57514;52.164;5.282;2022-10-16T15:37:43;12.30;;;2.58;;
70148;SDS011;57514;52.164;5.282;2022-10-16T15:40:10;10.35;;;2.03;;
70148;SDS011;57514;52.164;5.282;2022-10-16T15:42:37;14.77;;;2.47;;
70148;SDS011;57514;52.164;5.282;2022-10-16T15:45:05;12.65;;;2.85;;
70148;SDS011;57514;52.164;5.282;2022-10-16T15:47:32;17.48;;;3.40;;
70148;SDS011;57514;52.164;5.282;2022-10-16T15:49:59;13.85;;;2.78;;
70148;SDS011;57514;52.164;5.282;2022-10-16T15:52:26;7.55;;;2.20;;
70148;SDS011;57514;52.164;5.282;2022-10-16T15:54:55;7.63;;;2.00;;
70148;SDS011;57514;52.164;5.282;2022-10-16T15:57:22;12.75;;;2.45;;
70148;SDS011;57514;52.164;5.282;2022-10-16T15:59:50;10.82;;;3.15;;
70148;SDS011;57514;52.164;5.282;2022-10-16T16:02:17;9.18;;;2.92;;
70148;SDS011;57514;52.164;5.282;2022-10-16T16:04:44;8.75;;;3.20;;
70148;SDS011;57514;52.164;5.282;2022-10-16T16:07:11;11.35;;;2.97;;
70148;SDS011;57514;52.164;5.282;2022-10-16T16:09:38;14.32;;;3.53;;
70148;SDS011;57514;52.164;5.282;2022-10-16T16:12:05;9.30;;;3.17;;
70148;SDS011;57514;52.164;5.282;2022-10-16T16:14:32;12.90;;;3.55;;
70148;SDS011;57514;52.164;5.282;2022-10-16T16:17:00;10.80;;;4.32;;
70148;SDS011;57514;52.164;5.282;2022-10-16T16:19:28;12.48;;;4.38;;
70148;SDS011;57514;52.164;5.282;2022-10-16T16:21:54;14.77;;;5.32;;
70148;SDS011;57514;52.164;5.282;2022-10-16T16:24:21;16.90;;;8.35;;
70148;SDS011;57514;52.164;5.282;2022-10-16T16:26:49;15.10;;;6.80;;
70148;SDS011;57514;52.164;5.282;2022-10-16T16:29:16;13.07;;;7.18;;
70148;SDS011;57514;52.164;5.282;2022-10-16T16:31:43;14.52;;;6.60;;
70148;SDS011;57514;52.164;5.282;2022-10-16T16:34:10;14.73;;;7.40;;
70148;SDS011;57514;52.164;5.282;2022-10-16T16:36:37;19.27;;;8.05;;
70148;SDS011;57514;52.164;5.282;2022-10-16T16:39:06;14.70;;;6.70;;
70148;SDS011;57514;52.164;5.282;2022-10-16T16:41:33;11.98;;;6.03;;
70148;SDS011;57514;52.164;5.282;2022-10-16T16:44:05;14.05;;;5.35;;
70148;SDS011;57514;52.164;5.282;2022-10-16T16:46:33;15.95;;;4.70;;
70148;SDS011;57514;52.164;5.282;2022-10-16T16:49:03;14.05;;;5.35;;
70148;SDS011;57514;52.164;5.282;2022-10-16T16:51:30;14.65;;;4.88;;
70148;SDS011;57514;52.164;5.282;2022-10-16T16:54:03;19.38;;;5.32;;
70148;SDS011;57514;52.164;5.282;2022-10-16T16:56:30;12.13;;;5.35;;
70148;SDS011;57514;52.164;5.282;2022-10-16T16:58:57;20.40;;;6.22;;
70148;SDS011;57514;52.164;5.282;2022-10-16T17:01:25;19.42;;;7.05;;
70148;SDS011;57514;52.164;5.282;2022-10-16T17:03:54;19.45;;;7.88;;
70148;SDS011;57514;52.164;5.282;2022-10-16T17:06:26;18.60;;;8.95;;
70148;SDS011;57514;52.164;5.282;2022-10-16T17:08:55;19.40;;;9.85;;
70148;SDS011;57514;52.164;5.282;2022-10-16T17:11:23;20.90;;;10.95;;